Coral Leaf — PHNI — position and weather

sailwx.info

Track history (hours):
 
Tides and Currents Weather Stations Pressure Air Temp Water Temp Dewpoint Dewpoint Depression Visibility Wind Speed Wind Dir Waves Ship Positions

Coral Leaf

Last reported at 2016-Dec-07 07:29 UTC. Time now 2016-Dec-07 16:22 UTC.
Position N 58°05' E 011°49'.

Length 108 m; draft 6.5 m.

Type: Tanker. MMSI: 244036000.

Date/timePositionNaut miles runAvg speedWind from/ knotsBaromVisibWave heightAir tempDewpointWater temp
2016-Dec-07 07:29N 58°05' E 011°49'5 4.9
2016-Dec-07 06:33N 58°01' E 011°47'10 9.7
2016-Dec-07 05:33N 57°54' E 011°33'6 6.1
2016-Dec-07 04:33N 57°55' E 011°22'1 0.9
2016-Dec-07 03:31N 57°55' E 011°22'0 0.0
2016-Dec-07 02:31N 57°55' E 011°22'0 0.0
2016-Dec-07 01:31N 57°55' E 011°22'0 0.0
2016-Dec-07 00:31N 57°55' E 011°22'0 0.0
2016-Dec-06 23:25N 57°55' E 011°22'0 0.0
2016-Dec-06 22:25N 57°55' E 011°22'0 0.0
2016-Dec-06 21:28N 57°55' E 011°22'0 0.0
2016-Dec-06 20:22N 57°55' E 011°22'2 0.8
2016-Dec-06 18:33N 57°57' E 011°20'1514.9
2016-Dec-06 17:33N 58°08' E 011°02'1515.0
2016-Dec-06 16:32N 58°20' E 010°44'1514.8
2016-Dec-06 15:33N 58°32' E 010°26'1414.5
2016-Dec-06 14:33N 58°42' E 010°09'1514.7
2016-Dec-06 13:33N 58°54' E 009°52'1110.7
2016-Dec-06 12:33N 59°03' E 009°40'  
2016-Dec-03 21:33N 59°02' E 009°44'10 9.6
2016-Dec-03 20:34N 58°53' E 009°51'1212.4
2016-Dec-03 19:33N 58°43' E 010°04'2 2.4
2016-Dec-03 18:34N 58°41' E 010°06'0 0.4
2016-Dec-03 17:33N 58°40' E 010°06'0 0.2
2016-Dec-03 16:34N 58°40' E 010°05'0 0.1
2016-Dec-03 15:33N 58°40' E 010°05'7 7.0
2016-Dec-03 14:34N 58°38' E 010°18'1 0.5
2016-Dec-03 13:33N 58°38' E 010°17'1 0.7
2016-Dec-03 12:33N 58°38' E 010°16'1 0.8
2016-Dec-03 11:33N 58°37' E 010°15'1 1.0
2016-Dec-03 10:33N 58°37' E 010°13'1 0.9
2016-Dec-03 09:33N 58°37' E 010°11'1 0.9
2016-Dec-03 08:33N 58°36' E 010°10'1 0.8
2016-Dec-03 07:33N 58°36' E 010°09'1 0.5
2016-Dec-03 06:34N 58°36' E 010°08'0 0.4
2016-Dec-03 05:32N 58°35' E 010°07'0 0.3
2016-Dec-03 04:33N 58°35' E 010°06'0 0.4
2016-Dec-03 03:33N 58°35' E 010°06'1 0.5
2016-Dec-03 02:33N 58°36' E 010°05'1 0.9
2016-Dec-03 01:33N 58°37' E 010°04'1 1.0
2016-Dec-03 00:21N 58°37' E 010°03'1 1.2
2016-Dec-02 23:33N 58°38' E 010°01'1 1.2
2016-Dec-02 22:33N 58°39' E 009°60'1 1.0
2016-Dec-02 21:32N 58°40' E 009°58'1 0.7
2016-Dec-02 20:31N 58°40' E 009°57'3515.1
2016-Dec-02 18:12N 58°13' E 009°18'1116.1
2016-Dec-02 17:33N 58°05' E 009°04'15714.2
2016-Dec-02 06:28N 55°43' E 007°01'5 6.0
2016-Dec-02 05:33N 55°37' E 007°02'5 5.5
2016-Dec-02 04:33N 55°32' E 007°02'5 5.3
2016-Dec-02 03:33N 55°27' E 007°01'5 4.6
2016-Dec-02 02:33N 55°22' E 007°01'4 4.2
2016-Dec-02 01:33N 55°18' E 007°02'5 4.6
2016-Dec-02 00:33N 55°13' E 007°03'5 5.1
2016-Dec-01 23:33N 55°08' E 007°03'4 4.4
2016-Dec-01 22:33N 55°04' E 007°06'4 4.2
2016-Dec-01 21:33N 54°60' E 007°08'3 3.1
2016-Dec-01 20:33N 54°57' E 007°09'3 3.1
2016-Dec-01 19:33N 54°54' E 007°11'3 3.2
2016-Dec-01 18:33N 54°51' E 007°12'3 3.4
2016-Dec-01 17:33N 54°47' E 007°14'4 3.9
2016-Dec-01 16:33N 54°44' E 007°15'5 4.7
2016-Dec-01 15:33N 54°39' E 007°17'50 5.6
2016-Dec-01 06:32N 54°01' E 008°12'1312.7
2016-Dec-01 05:32N 53°58' E 008°34'1515.0
2016-Dec-01 04:33N 53°51' E 008°55'1312.7
2016-Dec-01 03:33N 53°52' E 009°16'1414.0
2016-Dec-01 02:34N 53°41' E 009°30'4 4.1
2016-Dec-01 01:32N 53°37' E 009°33'0 0.0
2016-Dec-01 00:32N 53°37' E 009°33'0 0.0
2016-Nov-30 23:32N 53°37' E 009°33'0 0.1
2016-Nov-30 22:32N 53°37' E 009°33'0 0.1
2016-Nov-30 21:32N 53°37' E 009°33'0 0.0
2016-Nov-30 20:32N 53°37' E 009°33'0 0.0
2016-Nov-30 19:32N 53°37' E 009°33'3 3.5
2016-Nov-30 18:32N 53°40' E 009°30'1 1.4
2016-Nov-30 17:31N 53°39' E 009°31'0 0.0
2016-Nov-30 16:31N 53°39' E 009°31'0 0.0
2016-Nov-30 15:31N 53°39' E 009°31'0 0.0
2016-Nov-30 14:31N 53°39' E 009°31'0 0.0
2016-Nov-30 13:31N 53°39' E 009°31'0 0.0
2016-Nov-30 12:28N 53°39' E 009°31'0 0.0
2016-Nov-30 11:31N 53°39' E 009°31'0 0.0
2016-Nov-30 10:10N 53°39' E 009°31'0 0.0
2016-Nov-30 09:28N 53°39' E 009°31'0 0.0
2016-Nov-30 08:28N 53°39' E 009°31'0 0.0
2016-Nov-30 07:28N 53°39' E 009°31'0 0.0
2016-Nov-30 06:31N 53°39' E 009°31'0 0.0
2016-Nov-30 05:31N 53°39' E 009°31'0 0.0
2016-Nov-30 04:31N 53°39' E 009°31'0 0.0
2016-Nov-30 03:31N 53°39' E 009°31'0 0.0
2016-Nov-30 02:31N 53°39' E 009°31'0 0.0
2016-Nov-30 01:31N 53°39' E 009°31'0 0.0
2016-Nov-30 00:31N 53°39' E 009°31'0 0.0
2016-Nov-29 23:31N 53°39' E 009°31'0 0.0
2016-Nov-29 22:31N 53°39' E 009°31'0 0.0
2016-Nov-29 21:28N 53°39' E 009°31'0 0.0
2016-Nov-29 20:31N 53°39' E 009°31'3 3.0
2016-Nov-29 19:33N 53°42' E 009°30'1212.1
2016-Nov-29 18:33N 53°52' E 009°18'10 9.7
2016-Nov-29 17:33N 53°51' E 009°01'1110.6
2016-Nov-29 16:33N 53°52' E 008°43'1110.7
2016-Nov-29 15:33N 53°58' E 008°28'7 7.3
2016-Nov-29 14:33N 53°60' E 008°16'1211.8
2016-Nov-29 13:32N 53°60' E 007°55'1515.2
2016-Nov-29 12:33N 53°55' E 007°32'1615.6
2016-Nov-29 11:33N 53°51' E 007°06'1615.4
2016-Nov-29 10:31N 53°47' E 006°40'1414.7
2016-Nov-29 09:33N 53°44' E 006°17'1515.0
2016-Nov-29 08:34N 53°39' E 005°53'1515.0
2016-Nov-29 07:34N 53°34' E 005°29'1716.6
2016-Nov-29 06:33N 53°29' E 005°03'1816.2
2016-Nov-29 05:26N 53°18' E 004°38'1517.0
2016-Nov-29 04:34N 53°05' E 004°26'1717.0
2016-Nov-29 03:33N 52°50' E 004°11'1817.1
2016-Nov-29 02:31N 52°36' E 003°52'1617.2
2016-Nov-29 01:34N 52°24' E 003°34'1716.8
2016-Nov-29 00:31N 52°12' E 003°13'1916.1
2016-Nov-28 23:19N 51°58' E 002°53'1315.3
2016-Nov-28 22:29N 51°48' E 002°39'1414.7
2016-Nov-28 21:33N 51°38' E 002°25'1413.9
2016-Nov-28 20:33N 51°27' E 002°10'1313.2
2016-Nov-28 19:33N 51°14' E 002°05'1312.6
2016-Nov-28 18:34N 51°08' E 001°48'1212.5
2016-Nov-28 17:34N 50°59' E 001°34'6412.8
2016-Nov-28 12:32N 50°21' E 000°11'1313.2
2016-Nov-28 11:33N 50°18' W 000°08'2814.1
2016-Nov-28 09:33N 50°10' W 000°51'1515.0
2016-Nov-28 08:34N 50°06' W 001°13'1515.2
2016-Nov-28 07:33N 50°02' W 001°36'1615.8
2016-Nov-28 06:33N 49°58' W 001°60'3416.3
2016-Nov-28 04:28N 49°49' W 002°51'1415.1
2016-Nov-28 03:34N 49°42' W 003°09'7314.2
2016-Nov-27 22:22N 49°06' W 004°47'1413.0
2016-Nov-27 21:16N 48°58' W 005°06'912.4
2016-Nov-27 20:32N 48°54' W 005°18'  
Track history (hours):
 
Tides and Currents Weather Stations Pressure Air Temp Water Temp Dewpoint Dewpoint Depression Visibility Wind Speed Wind Dir Waves Ship Positions

Coral Leaf

Last reported at 2016-Dec-07 07:29 UTC. Time now 2016-Dec-07 16:22 UTC.
Position N 58°05' E 011°49'.

Length 108 m; draft 6.5 m.

Type: Tanker. MMSI: 244036000.

Date/timePositionNaut miles runAvg speedWind from/ knotsBaromVisibWave heightAir tempDewpointWater temp
2016-Dec-07 07:29N 58°05' E 011°49'5 4.9
2016-Dec-07 06:33N 58°01' E 011°47'10 9.7
2016-Dec-07 05:33N 57°54' E 011°33'6 6.1
2016-Dec-07 04:33N 57°55' E 011°22'1 0.9
2016-Dec-07 03:31N 57°55' E 011°22'0 0.0
2016-Dec-07 02:31N 57°55' E 011°22'0 0.0
2016-Dec-07 01:31N 57°55' E 011°22'0 0.0
2016-Dec-07 00:31N 57°55' E 011°22'0 0.0
2016-Dec-06 23:25N 57°55' E 011°22'0 0.0
2016-Dec-06 22:25N 57°55' E 011°22'0 0.0
2016-Dec-06 21:28N 57°55' E 011°22'0 0.0
2016-Dec-06 20:22N 57°55' E 011°22'2 0.8
2016-Dec-06 18:33N 57°57' E 011°20'1514.9
2016-Dec-06 17:33N 58°08' E 011°02'1515.0
2016-Dec-06 16:32N 58°20' E 010°44'1514.8
2016-Dec-06 15:33N 58°32' E 010°26'1414.5
2016-Dec-06 14:33N 58°42' E 010°09'1514.7
2016-Dec-06 13:33N 58°54' E 009°52'1110.7
2016-Dec-06 12:33N 59°03' E 009°40'  
2016-Dec-03 21:33N 59°02' E 009°44'10 9.6
2016-Dec-03 20:34N 58°53' E 009°51'1212.4
2016-Dec-03 19:33N 58°43' E 010°04'2 2.4
2016-Dec-03 18:34N 58°41' E 010°06'0 0.4
2016-Dec-03 17:33N 58°40' E 010°06'0 0.2
2016-Dec-03 16:34N 58°40' E 010°05'0 0.1
2016-Dec-03 15:33N 58°40' E 010°05'7 7.0
2016-Dec-03 14:34N 58°38' E 010°18'1 0.5
2016-Dec-03 13:33N 58°38' E 010°17'1 0.7
2016-Dec-03 12:33N 58°38' E 010°16'1 0.8
2016-Dec-03 11:33N 58°37' E 010°15'1 1.0
2016-Dec-03 10:33N 58°37' E 010°13'1 0.9
2016-Dec-03 09:33N 58°37' E 010°11'1 0.9
2016-Dec-03 08:33N 58°36' E 010°10'1 0.8
2016-Dec-03 07:33N 58°36' E 010°09'1 0.5
2016-Dec-03 06:34N 58°36' E 010°08'0 0.4
2016-Dec-03 05:32N 58°35' E 010°07'0 0.3
2016-Dec-03 04:33N 58°35' E 010°06'0 0.4
2016-Dec-03 03:33N 58°35' E 010°06'1 0.5
2016-Dec-03 02:33N 58°36' E 010°05'1 0.9
2016-Dec-03 01:33N 58°37' E 010°04'1 1.0
2016-Dec-03 00:21N 58°37' E 010°03'1 1.2
2016-Dec-02 23:33N 58°38' E 010°01'1 1.2
2016-Dec-02 22:33N 58°39' E 009°60'1 1.0
2016-Dec-02 21:32N 58°40' E 009°58'1 0.7
2016-Dec-02 20:31N 58°40' E 009°57'3515.1
2016-Dec-02 18:12N 58°13' E 009°18'1116.1
2016-Dec-02 17:33N 58°05' E 009°04'15714.2
2016-Dec-02 06:28N 55°43' E 007°01'5 6.0
2016-Dec-02 05:33N 55°37' E 007°02'5 5.5
2016-Dec-02 04:33N 55°32' E 007°02'5 5.3
2016-Dec-02 03:33N 55°27' E 007°01'5 4.6
2016-Dec-02 02:33N 55°22' E 007°01'4 4.2
2016-Dec-02 01:33N 55°18' E 007°02'5 4.6
2016-Dec-02 00:33N 55°13' E 007°03'5 5.1
2016-Dec-01 23:33N 55°08' E 007°03'4 4.4
2016-Dec-01 22:33N 55°04' E 007°06'4 4.2
2016-Dec-01 21:33N 54°60' E 007°08'3 3.1
2016-Dec-01 20:33N 54°57' E 007°09'3 3.1
2016-Dec-01 19:33N 54°54' E 007°11'3 3.2
2016-Dec-01 18:33N 54°51' E 007°12'3 3.4
2016-Dec-01 17:33N 54°47' E 007°14'4 3.9
2016-Dec-01 16:33N 54°44' E 007°15'5 4.7
2016-Dec-01 15:33N 54°39' E 007°17'50 5.6
2016-Dec-01 06:32N 54°01' E 008°12'1312.7
2016-Dec-01 05:32N 53°58' E 008°34'1515.0
2016-Dec-01 04:33N 53°51' E 008°55'1312.7
2016-Dec-01 03:33N 53°52' E 009°16'1414.0
2016-Dec-01 02:34N 53°41' E 009°30'4 4.1
2016-Dec-01 01:32N 53°37' E 009°33'0 0.0
2016-Dec-01 00:32N 53°37' E 009°33'0 0.0
2016-Nov-30 23:32N 53°37' E 009°33'0 0.1
2016-Nov-30 22:32N 53°37' E 009°33'0 0.1
2016-Nov-30 21:32N 53°37' E 009°33'0 0.0
2016-Nov-30 20:32N 53°37' E 009°33'0 0.0
2016-Nov-30 19:32N 53°37' E 009°33'3 3.5
2016-Nov-30 18:32N 53°40' E 009°30'1 1.4
2016-Nov-30 17:31N 53°39' E 009°31'0 0.0
2016-Nov-30 16:31N 53°39' E 009°31'0 0.0
2016-Nov-30 15:31N 53°39' E 009°31'0 0.0
2016-Nov-30 14:31N 53°39' E 009°31'0 0.0
2016-Nov-30 13:31N 53°39' E 009°31'0 0.0
2016-Nov-30 12:28N 53°39' E 009°31'0 0.0
2016-Nov-30 11:31N 53°39' E 009°31'0 0.0
2016-Nov-30 10:10N 53°39' E 009°31'0 0.0
2016-Nov-30 09:28N 53°39' E 009°31'0 0.0
2016-Nov-30 08:28N 53°39' E 009°31'0 0.0
2016-Nov-30 07:28N 53°39' E 009°31'0 0.0
2016-Nov-30 06:31N 53°39' E 009°31'0 0.0
2016-Nov-30 05:31N 53°39' E 009°31'0 0.0
2016-Nov-30 04:31N 53°39' E 009°31'0 0.0
2016-Nov-30 03:31N 53°39' E 009°31'0 0.0
2016-Nov-30 02:31N 53°39' E 009°31'0 0.0
2016-Nov-30 01:31N 53°39' E 009°31'0 0.0
2016-Nov-30 00:31N 53°39' E 009°31'0 0.0
2016-Nov-29 23:31N 53°39' E 009°31'0 0.0
2016-Nov-29 22:31N 53°39' E 009°31'0 0.0
2016-Nov-29 21:28N 53°39' E 009°31'0 0.0
2016-Nov-29 20:31N 53°39' E 009°31'3 3.0
2016-Nov-29 19:33N 53°42' E 009°30'1212.1
2016-Nov-29 18:33N 53°52' E 009°18'10 9.7
2016-Nov-29 17:33N 53°51' E 009°01'1110.6
2016-Nov-29 16:33N 53°52' E 008°43'1110.7
2016-Nov-29 15:33N 53°58' E 008°28'7 7.3
2016-Nov-29 14:33N 53°60' E 008°16'1211.8
2016-Nov-29 13:32N 53°60' E 007°55'1515.2
2016-Nov-29 12:33N 53°55' E 007°32'1615.6
2016-Nov-29 11:33N 53°51' E 007°06'1615.4
2016-Nov-29 10:31N 53°47' E 006°40'1414.7
2016-Nov-29 09:33N 53°44' E 006°17'1515.0
2016-Nov-29 08:34N 53°39' E 005°53'1515.0
2016-Nov-29 07:34N 53°34' E 005°29'1716.6
2016-Nov-29 06:33N 53°29' E 005°03'1816.2
2016-Nov-29 05:26N 53°18' E 004°38'1517.0
2016-Nov-29 04:34N 53°05' E 004°26'1717.0
2016-Nov-29 03:33N 52°50' E 004°11'1817.1
2016-Nov-29 02:31N 52°36' E 003°52'1617.2
2016-Nov-29 01:34N 52°24' E 003°34'1716.8
2016-Nov-29 00:31N 52°12' E 003°13'1916.1
2016-Nov-28 23:19N 51°58' E 002°53'1315.3
2016-Nov-28 22:29N 51°48' E 002°39'1414.7
2016-Nov-28 21:33N 51°38' E 002°25'1413.9
2016-Nov-28 20:33N 51°27' E 002°10'1313.2
2016-Nov-28 19:33N 51°14' E 002°05'1312.6
2016-Nov-28 18:34N 51°08' E 001°48'1212.5
2016-Nov-28 17:34N 50°59' E 001°34'6412.8
2016-Nov-28 12:32N 50°21' E 000°11'1313.2
2016-Nov-28 11:33N 50°18' W 000°08'2814.1
2016-Nov-28 09:33N 50°10' W 000°51'1515.0
2016-Nov-28 08:34N 50°06' W 001°13'1515.2
2016-Nov-28 07:33N 50°02' W 001°36'1615.8
2016-Nov-28 06:33N 49°58' W 001°60'3416.3
2016-Nov-28 04:28N 49°49' W 002°51'1415.1
2016-Nov-28 03:34N 49°42' W 003°09'7314.2
2016-Nov-27 22:22N 49°06' W 004°47'1413.0
2016-Nov-27 21:16N 48°58' W 005°06'912.4
2016-Nov-27 20:32N 48°54' W 005°18'  

Dump ship's entire track history